sensor_id;sensor_type;location;lat;lon;timestamp;pressure;altitude;pressure_sealevel;temperature;humidity
26043;BME280;13818;52.156;5.382;2023-06-14T00:01:09;101243.22;;;19.39;87.04
26043;BME280;13818;52.156;5.382;2023-06-14T00:03:38;101238.38;;;19.31;87.74
26043;BME280;13818;52.156;5.382;2023-06-14T00:06:05;101241.88;;;19.45;89.62
26043;BME280;13818;52.156;5.382;2023-06-14T00:08:31;101244.22;;;19.38;88.78
26043;BME280;13818;52.156;5.382;2023-06-14T00:10:58;101244.72;;;19.43;88.83
26043;BME280;13818;52.156;5.382;2023-06-14T00:13:26;101246.41;;;19.33;88.24
26043;BME280;13818;52.156;5.382;2023-06-14T00:15:53;101243.41;;;19.25;89.65
26043;BME280;13818;52.156;5.382;2023-06-14T00:18:20;101235.31;;;19.25;88.60
26043;BME280;13818;52.156;5.382;2023-06-14T00:20:49;101244.75;;;19.19;88.50
26043;BME280;13818;52.156;5.382;2023-06-14T00:23:16;101247.22;;;19.22;89.41
26043;BME280;13818;52.156;5.382;2023-06-14T00:25:42;101242.06;;;19.19;88.73
26043;BME280;13818;52.156;5.382;2023-06-14T00:28:09;101251.34;;;19.15;87.96
26043;BME280;13818;52.156;5.382;2023-06-14T00:30:37;101253.56;;;19.10;88.88
26043;BME280;13818;52.156;5.382;2023-06-14T00:33:03;101251.81;;;19.09;87.48
26043;BME280;13818;52.156;5.382;2023-06-14T00:35:30;101254.94;;;19.15;88.38
26043;BME280;13818;52.156;5.382;2023-06-14T00:37:56;101255.66;;;19.17;87.32
26043;BME280;13818;52.156;5.382;2023-06-14T00:40:23;101257.97;;;19.11;87.38
26043;BME280;13818;52.156;5.382;2023-06-14T00:42:50;101249.13;;;19.09;86.78
26043;BME280;13818;52.156;5.382;2023-06-14T00:45:16;101254.31;;;19.12;87.14
26043;BME280;13818;52.156;5.382;2023-06-14T00:47:45;101261.56;;;19.11;86.21
26043;BME280;13818;52.156;5.382;2023-06-14T00:50:12;101248.41;;;19.07;86.45
26043;BME280;13818;52.156;5.382;2023-06-14T00:52:39;101252.41;;;19.01;86.38
26043;BME280;13818;52.156;5.382;2023-06-14T00:55:06;101241.09;;;18.96;86.51
26043;BME280;13818;52.156;5.382;2023-06-14T00:57:33;101238.25;;;18.97;87.27
26043;BME280;13818;52.156;5.382;2023-06-14T01:00:03;101246.16;;;19.00;86.85
26043;BME280;13818;52.156;5.382;2023-06-14T01:02:34;101253.75;;;18.95;86.70
26043;BME280;13818;52.156;5.382;2023-06-14T01:05:03;101250.28;;;18.93;87.09
26043;BME280;13818;52.156;5.382;2023-06-14T01:07:36;101251.47;;;18.89;87.22
26043;BME280;13818;52.156;5.382;2023-06-14T01:10:20;101249.34;;;18.81;87.33
26043;BME280;13818;52.156;5.382;2023-06-14T01:12:55;101262.09;;;18.79;87.87
26043;BME280;13818;52.156;5.382;2023-06-14T01:15:26;101245.03;;;18.79;89.41
26043;BME280;13818;52.156;5.382;2023-06-14T01:17:54;101239.41;;;18.82;89.43
26043;BME280;13818;52.156;5.382;2023-06-14T01:20:28;101245.69;;;18.82;88.79
26043;BME280;13818;52.156;5.382;2023-06-14T01:22:56;101248.38;;;18.82;88.74
26043;BME280;13818;52.156;5.382;2023-06-14T01:25:23;101245.69;;;18.82;89.24
26043;BME280;13818;52.156;5.382;2023-06-14T01:27:52;101247.22;;;18.74;88.53
26043;BME280;13818;52.156;5.382;2023-06-14T01:30:20;101249.28;;;18.70;88.67
26043;BME280;13818;52.156;5.382;2023-06-14T01:32:48;101248.34;;;18.58;88.79
26043;BME280;13818;52.156;5.382;2023-06-14T01:35:16;101247.09;;;18.51;90.18
26043;BME280;13818;52.156;5.382;2023-06-14T01:37:43;101236.94;;;18.54;90.46
26043;BME280;13818;52.156;5.382;2023-06-14T01:40:12;101242.94;;;18.58;89.65
26043;BME280;13818;52.156;5.382;2023-06-14T01:42:41;101241.25;;;18.57;89.72
26043;BME280;13818;52.156;5.382;2023-06-14T01:45:09;101243.38;;;18.52;89.91
26043;BME280;13818;52.156;5.382;2023-06-14T01:47:36;101249.59;;;18.41;90.35
26043;BME280;13818;52.156;5.382;2023-06-14T01:50:03;101255.44;;;18.35;91.08
26043;BME280;13818;52.156;5.382;2023-06-14T01:52:30;101251.13;;;18.32;91.09
26043;BME280;13818;52.156;5.382;2023-06-14T01:54:56;101249.19;;;18.34;91.15
26043;BME280;13818;52.156;5.382;2023-06-14T01:57:25;101244.97;;;18.30;91.65
26043;BME280;13818;52.156;5.382;2023-06-14T01:59:52;101248.00;;;18.26;91.99
26043;BME280;13818;52.156;5.382;2023-06-14T02:02:19;101244.56;;;18.24;92.45
26043;BME280;13818;52.156;5.382;2023-06-14T02:04:45;101244.22;;;18.28;94.77
26043;BME280;13818;52.156;5.382;2023-06-14T02:07:12;101241.75;;;18.25;92.42
26043;BME280;13818;52.156;5.382;2023-06-14T02:09:39;101258.91;;;18.24;92.23
26043;BME280;13818;52.156;5.382;2023-06-14T02:12:06;101249.53;;;18.17;94.02
26043;BME280;13818;52.156;5.382;2023-06-14T02:14:34;101247.03;;;18.14;93.44
26043;BME280;13818;52.156;5.382;2023-06-14T02:17:01;101246.63;;;18.07;93.92
26043;BME280;13818;52.156;5.382;2023-06-14T02:19:27;101243.94;;;18.07;94.27
26043;BME280;13818;52.156;5.382;2023-06-14T02:21:54;101239.28;;;17.96;94.66
26043;BME280;13818;52.156;5.382;2023-06-14T02:24:20;101242.75;;;17.98;95.29
26043;BME280;13818;52.156;5.382;2023-06-14T02:26:48;101246.00;;;18.03;95.37
26043;BME280;13818;52.156;5.382;2023-06-14T02:29:15;101247.50;;;17.95;95.86
26043;BME280;13818;52.156;5.382;2023-06-14T02:31:43;101246.72;;;17.93;96.25
26043;BME280;13818;52.156;5.382;2023-06-14T02:34:12;101247.69;;;17.92;98.33
26043;BME280;13818;52.156;5.382;2023-06-14T02:36:38;101244.88;;;17.93;97.13
26043;BME280;13818;52.156;5.382;2023-06-14T02:39:07;101247.78;;;17.90;98.60
26043;BME280;13818;52.156;5.382;2023-06-14T02:41:34;101244.34;;;17.88;98.88
26043;BME280;13818;52.156;5.382;2023-06-14T02:44:01;101247.19;;;17.99;100.00
26043;BME280;13818;52.156;5.382;2023-06-14T02:46:27;101251.25;;;18.05;99.48
26043;BME280;13818;52.156;5.382;2023-06-14T02:48:55;101257.31;;;17.83;99.39
26043;BME280;13818;52.156;5.382;2023-06-14T02:51:22;101254.75;;;17.94;100.00
26043;BME280;13818;52.156;5.382;2023-06-14T02:53:48;101254.91;;;17.91;100.00
26043;BME280;13818;52.156;5.382;2023-06-14T02:56:15;101253.44;;;18.00;100.00
26043;BME280;13818;52.156;5.382;2023-06-14T02:58:42;101261.09;;;18.06;100.00
26043;BME280;13818;52.156;5.382;2023-06-14T03:01:09;101263.75;;;17.93;100.00
26043;BME280;13818;52.156;5.382;2023-06-14T03:03:39;101260.75;;;17.98;99.93
26043;BME280;13818;52.156;5.382;2023-06-14T03:06:07;101277.69;;;18.13;100.00
26043;BME280;13818;52.156;5.382;2023-06-14T03:08:34;101268.94;;;18.09;100.00
26043;BME280;13818;52.156;5.382;2023-06-14T03:11:04;101274.13;;;18.25;100.00
26043;BME280;13818;52.156;5.382;2023-06-14T03:13:31;101280.47;;;18.24;100.00
26043;BME280;13818;52.156;5.382;2023-06-14T03:15:58;101275.09;;;18.24;100.00
26043;BME280;13818;52.156;5.382;2023-06-14T03:18:27;101279.72;;;18.35;100.00
26043;BME280;13818;52.156;5.382;2023-06-14T03:20:54;101280.56;;;18.35;99.66
26043;BME280;13818;52.156;5.382;2023-06-14T03:23:23;101286.28;;;18.44;100.00
26043;BME280;13818;52.156;5.382;2023-06-14T03:25:50;101283.25;;;18.35;99.04
26043;BME280;13818;52.156;5.382;2023-06-14T03:28:17;101279.41;;;18.14;99.15
26043;BME280;13818;52.156;5.382;2023-06-14T03:30:43;101279.94;;;18.19;100.00
26043;BME280;13818;52.156;5.382;2023-06-14T03:33:10;101283.09;;;18.26;100.00
26043;BME280;13818;52.156;5.382;2023-06-14T03:35:37;101285.69;;;18.14;100.00
26043;BME280;13818;52.156;5.382;2023-06-14T03:38:03;101287.84;;;18.22;100.00
26043;BME280;13818;52.156;5.382;2023-06-14T03:40:31;101288.78;;;18.34;100.00
26043;BME280;13818;52.156;5.382;2023-06-14T03:42:58;101293.50;;;18.56;99.84
26043;BME280;13818;52.156;5.382;2023-06-14T03:45:25;101292.81;;;18.65;98.39
26043;BME280;13818;52.156;5.382;2023-06-14T03:47:51;101296.31;;;18.92;98.23
26043;BME280;13818;52.156;5.382;2023-06-14T03:50:18;101303.09;;;18.97;95.47
26043;BME280;13818;52.156;5.382;2023-06-14T03:52:45;101304.09;;;19.21;95.99
26043;BME280;13818;52.156;5.382;2023-06-14T03:55:12;101303.63;;;19.27;93.72
26043;BME280;13818;52.156;5.382;2023-06-14T03:57:40;101309.41;;;19.33;93.88
26043;BME280;13818;52.156;5.382;2023-06-14T04:00:08;101309.25;;;19.48;91.65
26043;BME280;13818;52.156;5.382;2023-06-14T04:02:35;101308.06;;;19.63;92.70
26043;BME280;13818;52.156;5.382;2023-06-14T04:05:02;101311.00;;;20.07;92.16
26043;BME280;13818;52.156;5.382;2023-06-14T04:07:29;101314.94;;;19.67;87.07
26043;BME280;13818;52.156;5.382;2023-06-14T04:09:55;101323.41;;;19.63;87.33
26043;BME280;13818;52.156;5.382;2023-06-14T04:12:22;101328.22;;;20.06;84.88
26043;BME280;13818;52.156;5.382;2023-06-14T04:14:50;101332.53;;;20.09;83.90
26043;BME280;13818;52.156;5.382;2023-06-14T04:17:16;101330.06;;;20.28;85.34
26043;BME280;13818;52.156;5.382;2023-06-14T04:19:43;101327.34;;;20.28;84.14
26043;BME280;13818;52.156;5.382;2023-06-14T04:22:09;101336.81;;;20.68;81.58
26043;BME280;13818;52.156;5.382;2023-06-14T04:24:36;101331.53;;;20.67;80.13
26043;BME280;13818;52.156;5.382;2023-06-14T04:27:03;101332.03;;;20.83;81.47
26043;BME280;13818;52.156;5.382;2023-06-14T04:29:29;101340.09;;;21.17;80.42
26043;BME280;13818;52.156;5.382;2023-06-14T04:31:58;101338.88;;;21.10;76.38
26043;BME280;13818;52.156;5.382;2023-06-14T04:34:26;101338.47;;;21.58;76.62
26043;BME280;13818;52.156;5.382;2023-06-14T04:36:54;101337.28;;;21.93;75.00
26043;BME280;13818;52.156;5.382;2023-06-14T04:39:22;101342.78;;;21.61;74.38
26043;BME280;13818;52.156;5.382;2023-06-14T04:41:48;101348.06;;;21.63;73.59
26043;BME280;13818;52.156;5.382;2023-06-14T04:44:18;101339.31;;;22.01;73.95
26043;BME280;13818;52.156;5.382;2023-06-14T04:46:45;101348.44;;;22.21;71.25
26043;BME280;13818;52.156;5.382;2023-06-14T04:49:14;101353.03;;;22.00;70.67
26043;BME280;13818;52.156;5.382;2023-06-14T04:51:41;101352.19;;;22.30;69.80
26043;BME280;13818;52.156;5.382;2023-06-14T04:54:07;101359.53;;;23.11;68.06
26043;BME280;13818;52.156;5.382;2023-06-14T04:56:35;101361.88;;;23.45;65.22
26043;BME280;13818;52.156;5.382;2023-06-14T04:59:02;101356.13;;;23.68;63.94
26043;BME280;13818;52.156;5.382;2023-06-14T05:01:29;101366.16;;;23.38;64.54
26043;BME280;13818;52.156;5.382;2023-06-14T05:03:57;101360.81;;;24.15;61.67
26043;BME280;13818;52.156;5.382;2023-06-14T05:06:25;101363.88;;;24.02;62.15
26043;BME280;13818;52.156;5.382;2023-06-14T05:08:52;101360.28;;;23.92;63.18
26043;BME280;13818;52.156;5.382;2023-06-14T05:11:19;101362.56;;;23.67;61.78
26043;BME280;13818;52.156;5.382;2023-06-14T05:13:46;101369.69;;;24.54;60.28
26043;BME280;13818;52.156;5.382;2023-06-14T05:16:12;101358.63;;;24.66;59.70
26043;BME280;13818;52.156;5.382;2023-06-14T05:18:41;101363.94;;;24.20;59.39
26043;BME280;13818;52.156;5.382;2023-06-14T05:21:07;101371.28;;;24.19;60.27
26043;BME280;13818;52.156;5.382;2023-06-14T05:23:35;101369.13;;;24.89;59.27
26043;BME280;13818;52.156;5.382;2023-06-14T05:26:02;101366.97;;;24.92;56.17
26043;BME280;13818;52.156;5.382;2023-06-14T05:28:29;101377.50;;;25.51;56.39
26043;BME280;13818;52.156;5.382;2023-06-14T05:30:56;101378.22;;;25.25;56.69
26043;BME280;13818;52.156;5.382;2023-06-14T05:33:23;101366.16;;;24.82;58.25
26043;BME280;13818;52.156;5.382;2023-06-14T05:35:50;101374.66;;;24.79;57.76
26043;BME280;13818;52.156;5.382;2023-06-14T05:38:16;101373.19;;;24.84;59.10
26043;BME280;13818;52.156;5.382;2023-06-14T05:40:44;101383.31;;;24.92;58.25
26043;BME280;13818;52.156;5.382;2023-06-14T05:43:11;101379.03;;;24.04;59.25
26043;BME280;13818;52.156;5.382;2023-06-14T05:45:37;101379.97;;;24.23;59.47
26043;BME280;13818;52.156;5.382;2023-06-14T05:48:04;101392.41;;;25.11;56.62
26043;BME280;13818;52.156;5.382;2023-06-14T05:50:30;101396.38;;;25.16;58.32
26043;BME280;13818;52.156;5.382;2023-06-14T05:52:57;101391.72;;;24.71;58.09
26043;BME280;13818;52.156;5.382;2023-06-14T05:55:23;101396.81;;;25.58;56.50
26043;BME280;13818;52.156;5.382;2023-06-14T05:57:51;101392.91;;;24.68;56.38
26043;BME280;13818;52.156;5.382;2023-06-14T06:00:19;101400.81;;;24.04;57.51
26043;BME280;13818;52.156;5.382;2023-06-14T06:02:45;101396.50;;;25.79;55.47
26043;BME280;13818;52.156;5.382;2023-06-14T06:05:13;101403.09;;;25.94;53.32
26043;BME280;13818;52.156;5.382;2023-06-14T06:07:41;101406.41;;;25.62;53.75
26043;BME280;13818;52.156;5.382;2023-06-14T06:10:09;101410.75;;;25.91;52.34
26043;BME280;13818;52.156;5.382;2023-06-14T06:12:36;101405.72;;;25.78;52.28
26043;BME280;13818;52.156;5.382;2023-06-14T06:15:05;101414.81;;;25.50;51.93
26043;BME280;13818;52.156;5.382;2023-06-14T06:17:33;101404.13;;;24.93;54.57
26043;BME280;13818;52.156;5.382;2023-06-14T06:19:59;101415.91;;;26.12;51.65
26043;BME280;13818;52.156;5.382;2023-06-14T06:22:26;101403.59;;;26.95;48.75
26043;BME280;13818;52.156;5.382;2023-06-14T06:24:52;101425.88;;;26.03;50.21
26043;BME280;13818;52.156;5.382;2023-06-14T06:27:19;101410.50;;;26.20;49.90
26043;BME280;13818;52.156;5.382;2023-06-14T06:29:45;101418.91;;;25.82;51.03
26043;BME280;13818;52.156;5.382;2023-06-14T06:32:15;101424.44;;;26.35;49.78
26043;BME280;13818;52.156;5.382;2023-06-14T06:34:41;101419.03;;;25.99;50.15
26043;BME280;13818;52.156;5.382;2023-06-14T06:37:08;101415.28;;;25.82;50.66
26043;BME280;13818;52.156;5.382;2023-06-14T06:39:34;101430.06;;;25.53;50.97
26043;BME280;13818;52.156;5.382;2023-06-14T06:42:01;101430.50;;;26.47;50.20
26043;BME280;13818;52.156;5.382;2023-06-14T06:44:27;101421.81;;;26.52;49.67
26043;BME280;13818;52.156;5.382;2023-06-14T06:46:54;101422.50;;;27.31;47.38
26043;BME280;13818;52.156;5.382;2023-06-14T06:49:22;101428.50;;;26.84;48.03
26043;BME280;13818;52.156;5.382;2023-06-14T06:51:59;101434.56;;;27.80;46.17
26043;BME280;13818;52.156;5.382;2023-06-14T06:54:27;101433.16;;;28.58;44.07
26043;BME280;13818;52.156;5.382;2023-06-14T06:56:53;101437.34;;;29.33;43.15
26043;BME280;13818;52.156;5.382;2023-06-14T06:59:20;101433.25;;;29.29;41.81
26043;BME280;13818;52.156;5.382;2023-06-14T07:01:47;101438.16;;;27.72;44.52
26043;BME280;13818;52.156;5.382;2023-06-14T07:04:13;101446.19;;;27.49;44.74
26043;BME280;13818;52.156;5.382;2023-06-14T07:06:43;101446.97;;;26.90;47.06
26043;BME280;13818;52.156;5.382;2023-06-14T07:09:10;101435.94;;;27.67;46.05
26043;BME280;13818;52.156;5.382;2023-06-14T07:11:38;101448.25;;;28.54;43.39
26043;BME280;13818;52.156;5.382;2023-06-14T07:14:05;101454.28;;;28.00;43.75
26043;BME280;13818;52.156;5.382;2023-06-14T07:16:32;101449.03;;;29.82;40.70
26043;BME280;13818;52.156;5.382;2023-06-14T07:18:59;101455.53;;;29.26;39.86
26043;BME280;13818;52.156;5.382;2023-06-14T07:21:26;101441.59;;;27.74;42.46
26043;BME280;13818;52.156;5.382;2023-06-14T07:23:54;101451.13;;;27.53;43.23
26043;BME280;13818;52.156;5.382;2023-06-14T07:26:21;101452.59;;;28.96;40.66
26043;BME280;13818;52.156;5.382;2023-06-14T07:28:48;101460.44;;;28.02;40.74
26043;BME280;13818;52.156;5.382;2023-06-14T07:31:16;101468.34;;;25.97;44.33
26043;BME280;13818;52.156;5.382;2023-06-14T07:33:44;101459.59;;;27.25;43.18
26043;BME280;13818;52.156;5.382;2023-06-14T07:36:11;101474.53;;;27.39;42.33
26043;BME280;13818;52.156;5.382;2023-06-14T07:38:37;101468.31;;;26.86;43.62
26043;BME280;13818;52.156;5.382;2023-06-14T07:41:07;101470.00;;;26.53;43.55
26043;BME280;13818;52.156;5.382;2023-06-14T07:43:33;101469.22;;;26.95;43.68
26043;BME280;13818;52.156;5.382;2023-06-14T07:46:00;101463.28;;;27.51;42.64
26043;BME280;13818;52.156;5.382;2023-06-14T07:48:27;101463.88;;;28.29;40.32
26043;BME280;13818;52.156;5.382;2023-06-14T07:50:54;101462.63;;;28.72;39.75
26043;BME280;13818;52.156;5.382;2023-06-14T07:53:20;101480.97;;;29.28;38.87
26043;BME280;13818;52.156;5.382;2023-06-14T07:55:47;101489.69;;;28.84;38.51
26043;BME280;13818;52.156;5.382;2023-06-14T07:58:15;101479.84;;;26.98;40.76
26043;BME280;13818;52.156;5.382;2023-06-14T08:00:42;101486.91;;;26.56;41.26
26043;BME280;13818;52.156;5.382;2023-06-14T08:03:08;101493.53;;;27.41;41.18
26043;BME280;13818;52.156;5.382;2023-06-14T08:05:35;101484.94;;;28.36;39.42
26043;BME280;13818;52.156;5.382;2023-06-14T08:08:01;101492.97;;;28.63;38.84
26043;BME280;13818;52.156;5.382;2023-06-14T08:10:28;101487.00;;;28.51;38.86
26043;BME280;13818;52.156;5.382;2023-06-14T08:12:54;101483.69;;;28.72;38.09
26043;BME280;13818;52.156;5.382;2023-06-14T08:15:22;101487.13;;;28.49;37.53
26043;BME280;13818;52.156;5.382;2023-06-14T08:17:49;101500.97;;;27.65;38.42
26043;BME280;13818;52.156;5.382;2023-06-14T08:20:15;101499.00;;;27.41;38.68
26043;BME280;13818;52.156;5.382;2023-06-14T08:22:42;101493.31;;;26.91;39.88
26043;BME280;13818;52.156;5.382;2023-06-14T08:25:09;101486.22;;;26.28;40.82
26043;BME280;13818;52.156;5.382;2023-06-14T08:27:36;101498.41;;;27.21;39.88
26043;BME280;13818;52.156;5.382;2023-06-14T08:30:03;101481.25;;;27.10;40.32
26043;BME280;13818;52.156;5.382;2023-06-14T08:32:31;101491.59;;;26.90;40.80
26043;BME280;13818;52.156;5.382;2023-06-14T08:34:57;101503.84;;;26.34;40.41
26043;BME280;13818;52.156;5.382;2023-06-14T08:37:24;101484.63;;;26.96;40.04
26043;BME280;13818;52.156;5.382;2023-06-14T08:39:52;101491.59;;;26.90;39.77
26043;BME280;13818;52.156;5.382;2023-06-14T08:42:18;101492.69;;;25.91;40.63
26043;BME280;13818;52.156;5.382;2023-06-14T08:44:47;101486.16;;;25.83;41.25
26043;BME280;13818;52.156;5.382;2023-06-14T08:47:15;101474.03;;;26.04;41.55
26043;BME280;13818;52.156;5.382;2023-06-14T08:49:46;101480.53;;;26.47;41.19
26043;BME280;13818;52.156;5.382;2023-06-14T08:52:15;101490.84;;;26.09;40.41
26043;BME280;13818;52.156;5.382;2023-06-14T08:54:46;101475.53;;;25.34;41.86
26043;BME280;13818;52.156;5.382;2023-06-14T08:57:14;101475.13;;;25.93;42.02
26043;BME280;13818;52.156;5.382;2023-06-14T08:59:46;101488.38;;;25.24;41.78
26043;BME280;13818;52.156;5.382;2023-06-14T09:02:14;101482.34;;;26.12;40.84
26043;BME280;13818;52.156;5.382;2023-06-14T09:04:46;101461.56;;;26.02;39.62
26043;BME280;13818;52.156;5.382;2023-06-14T09:07:12;101491.78;;;25.26;40.05
26043;BME280;13818;52.156;5.382;2023-06-14T09:09:39;101471.03;;;25.15;41.02
26043;BME280;13818;52.156;5.382;2023-06-14T09:12:08;101511.59;;;25.38;39.42
26043;BME280;13818;52.156;5.382;2023-06-14T09:14:36;101479.72;;;25.01;39.83
26043;BME280;13818;52.156;5.382;2023-06-14T09:17:05;101485.16;;;25.01;39.94
26043;BME280;13818;52.156;5.382;2023-06-14T09:19:31;101483.47;;;25.56;40.00
26043;BME280;13818;52.156;5.382;2023-06-14T09:21:59;101485.09;;;25.85;38.88
26043;BME280;13818;52.156;5.382;2023-06-14T09:24:26;101489.34;;;25.79;38.30
26043;BME280;13818;52.156;5.382;2023-06-14T09:26:53;101481.50;;;25.48;39.55
26043;BME280;13818;52.156;5.382;2023-06-14T09:29:19;101509.81;;;25.47;39.84
26043;BME280;13818;52.156;5.382;2023-06-14T09:31:46;101486.84;;;24.74;40.48
26043;BME280;13818;52.156;5.382;2023-06-14T09:34:13;101496.03;;;24.63;40.98
26043;BME280;13818;52.156;5.382;2023-06-14T09:36:43;101521.69;;;24.90;39.56
26043;BME280;13818;52.156;5.382;2023-06-14T09:39:16;101505.81;;;25.04;39.07
26043;BME280;13818;52.156;5.382;2023-06-14T09:41:43;101501.47;;;24.63;39.74
26043;BME280;13818;52.156;5.382;2023-06-14T09:44:10;101510.63;;;24.82;39.43
26043;BME280;13818;52.156;5.382;2023-06-14T09:46:38;101491.91;;;25.07;38.72
26043;BME280;13818;52.156;5.382;2023-06-14T09:49:05;101501.06;;;24.68;37.79
26043;BME280;13818;52.156;5.382;2023-06-14T09:51:32;101492.72;;;24.60;39.10
26043;BME280;13818;52.156;5.382;2023-06-14T09:54:00;101492.91;;;24.48;39.93
26043;BME280;13818;52.156;5.382;2023-06-14T09:56:29;101482.75;;;24.98;39.88
26043;BME280;13818;52.156;5.382;2023-06-14T09:58:56;101499.69;;;25.01;39.22
26043;BME280;13818;52.156;5.382;2023-06-14T10:01:24;101480.97;;;24.79;40.05
26043;BME280;13818;52.156;5.382;2023-06-14T10:03:55;101480.25;;;24.57;39.66
26043;BME280;13818;52.156;5.382;2023-06-14T10:06:23;101492.19;;;24.46;40.01
26043;BME280;13818;52.156;5.382;2023-06-14T10:08:52;101500.81;;;24.32;40.73
26043;BME280;13818;52.156;5.382;2023-06-14T10:11:21;101482.59;;;24.42;41.24
26043;BME280;13818;52.156;5.382;2023-06-14T10:13:49;101474.22;;;24.63;40.66
26043;BME280;13818;52.156;5.382;2023-06-14T10:16:20;101490.72;;;24.62;38.04
26043;BME280;13818;52.156;5.382;2023-06-14T10:18:51;101475.38;;;24.61;39.41
26043;BME280;13818;52.156;5.382;2023-06-14T10:21:23;101478.69;;;24.64;39.42
26043;BME280;13818;52.156;5.382;2023-06-14T10:23:52;101472.66;;;24.71;39.89
26043;BME280;13818;52.156;5.382;2023-06-14T10:26:20;101477.44;;;24.49;40.68
26043;BME280;13818;52.156;5.382;2023-06-14T10:28:58;101460.91;;;24.70;41.71
26043;BME280;13818;52.156;5.382;2023-06-14T10:31:47;101487.06;;;24.91;40.81
26043;BME280;13818;52.156;5.382;2023-06-14T10:34:22;101484.72;;;24.68;41.15
26043;BME280;13818;52.156;5.382;2023-06-14T10:37:01;101478.44;;;24.38;41.08
26043;BME280;13818;52.156;5.382;2023-06-14T10:39:28;101470.41;;;24.46;40.26
26043;BME280;13818;52.156;5.382;2023-06-14T10:41:56;101503.00;;;24.18;39.86
26043;BME280;13818;52.156;5.382;2023-06-14T10:44:44;101484.78;;;24.29;40.94
26043;BME280;13818;52.156;5.382;2023-06-14T10:47:24;101493.53;;;24.13;40.78
26043;BME280;13818;52.156;5.382;2023-06-14T10:49:52;101469.88;;;23.94;40.84
26043;BME280;13818;52.156;5.382;2023-06-14T10:52:25;101477.50;;;24.10;41.59
26043;BME280;13818;52.156;5.382;2023-06-14T10:55:06;101477.03;;;24.24;41.20
26043;BME280;13818;52.156;5.382;2023-06-14T10:57:35;101465.81;;;24.47;41.27
26043;BME280;13818;52.156;5.382;2023-06-14T11:00:05;101467.84;;;24.15;41.48
26043;BME280;13818;52.156;5.382;2023-06-14T11:05:42;101468.00;;;24.04;41.32
26043;BME280;13818;52.156;5.382;2023-06-14T11:08:27;101464.72;;;24.30;41.40
26043;BME280;13818;52.156;5.382;2023-06-14T11:10:59;101472.53;;;24.52;40.60
26043;BME280;13818;52.156;5.382;2023-06-14T11:13:25;101487.59;;;24.37;41.13
26043;BME280;13818;52.156;5.382;2023-06-14T11:15:53;101479.31;;;24.29;41.45
26043;BME280;13818;52.156;5.382;2023-06-14T11:18:22;101460.69;;;24.14;40.83
26043;BME280;13818;52.156;5.382;2023-06-14T11:20:50;101489.78;;;24.24;40.90
26043;BME280;13818;52.156;5.382;2023-06-14T11:23:17;101474.19;;;24.06;41.32
26043;BME280;13818;52.156;5.382;2023-06-14T11:25:43;101472.72;;;24.12;41.75
26043;BME280;13818;52.156;5.382;2023-06-14T11:28:10;101473.72;;;24.30;42.22
26043;BME280;13818;52.156;5.382;2023-06-14T11:30:36;101475.25;;;24.62;41.99
26043;BME280;13818;52.156;5.382;2023-06-14T11:33:04;101453.44;;;24.62;41.27
26043;BME280;13818;52.156;5.382;2023-06-14T11:35:31;101461.50;;;24.54;40.79
26043;BME280;13818;52.156;5.382;2023-06-14T11:37:58;101468.69;;;24.45;41.26
26043;BME280;13818;52.156;5.382;2023-06-14T11:40:26;101453.06;;;24.47;41.09
26043;BME280;13818;52.156;5.382;2023-06-14T11:42:58;101461.09;;;24.39;41.07
26043;BME280;13818;52.156;5.382;2023-06-14T11:45:25;101472.47;;;24.25;41.84
26043;BME280;13818;52.156;5.382;2023-06-14T11:47:54;101461.25;;;24.28;42.75
26043;BME280;13818;52.156;5.382;2023-06-14T11:50:22;101438.84;;;24.53;41.74
26043;BME280;13818;52.156;5.382;2023-06-14T11:52:53;101447.31;;;24.50;41.44
26043;BME280;13818;52.156;5.382;2023-06-14T11:55:20;101459.19;;;24.49;41.30
26043;BME280;13818;52.156;5.382;2023-06-14T11:57:47;101463.06;;;24.47;41.25
26043;BME280;13818;52.156;5.382;2023-06-14T12:00:14;101466.53;;;24.39;40.00
26043;BME280;13818;52.156;5.382;2023-06-14T12:02:42;101455.53;;;24.31;41.21
26043;BME280;13818;52.156;5.382;2023-06-14T12:05:09;101457.38;;;24.40;40.52
26043;BME280;13818;52.156;5.382;2023-06-14T12:07:37;101455.38;;;24.23;40.27
26043;BME280;13818;52.156;5.382;2023-06-14T12:10:07;101456.88;;;24.54;40.81
26043;BME280;13818;52.156;5.382;2023-06-14T12:12:35;101460.41;;;24.84;40.94
26043;BME280;13818;52.156;5.382;2023-06-14T12:15:03;101472.00;;;24.39;40.05
26043;BME280;13818;52.156;5.382;2023-06-14T12:17:32;101451.19;;;24.48;41.52
26043;BME280;13818;52.156;5.382;2023-06-14T12:20:05;101466.22;;;24.52;42.04
26043;BME280;13818;52.156;5.382;2023-06-14T12:22:33;101457.66;;;24.37;42.49
26043;BME280;13818;52.156;5.382;2023-06-14T12:25:01;101461.19;;;24.67;42.66
26043;BME280;13818;52.156;5.382;2023-06-14T12:27:28;101446.28;;;24.51;42.33
26043;BME280;13818;52.156;5.382;2023-06-14T12:29:59;101457.66;;;24.37;42.65
26043;BME280;13818;52.156;5.382;2023-06-14T12:32:25;101452.94;;;24.29;42.62
26043;BME280;13818;52.156;5.382;2023-06-14T12:34:52;101441.84;;;24.50;43.00
26043;BME280;13818;52.156;5.382;2023-06-14T12:37:18;101459.19;;;24.59;42.88
26043;BME280;13818;52.156;5.382;2023-06-14T12:39:45;101461.59;;;24.72;43.24
26043;BME280;13818;52.156;5.382;2023-06-14T12:42:13;101442.25;;;24.56;43.62
26043;BME280;13818;52.156;5.382;2023-06-14T12:44:39;101463.66;;;24.41;43.68
26043;BME280;13818;52.156;5.382;2023-06-14T12:47:06;101474.03;;;24.27;43.60
26043;BME280;13818;52.156;5.382;2023-06-14T12:49:33;101445.22;;;24.25;43.76
26043;BME280;13818;52.156;5.382;2023-06-14T12:52:00;101455.47;;;24.50;43.98
26043;BME280;13818;52.156;5.382;2023-06-14T12:54:26;101442.66;;;24.80;43.78
26043;BME280;13818;52.156;5.382;2023-06-14T12:56:53;101431.53;;;24.92;43.87